sensor_id;sensor_type;location;lat;lon;timestamp;P1;durP1;ratioP1;P2;durP2;ratioP2
75016;SDS011;63577;39.766;2.720;2023-05-10T00:02:18;5.20;;;1.20;;
75016;SDS011;63577;39.766;2.720;2023-05-10T00:04:43;3.30;;;1.50;;
75016;SDS011;63577;39.766;2.720;2023-05-10T00:07:08;2.90;;;1.30;;
75016;SDS011;63577;39.766;2.720;2023-05-10T00:09:35;3.90;;;1.40;;
75016;SDS011;63577;39.766;2.720;2023-05-10T00:12:00;3.90;;;1.60;;
75016;SDS011;63577;39.766;2.720;2023-05-10T00:14:25;3.70;;;1.40;;
75016;SDS011;63577;39.766;2.720;2023-05-10T00:16:51;4.50;;;1.60;;
75016;SDS011;63577;39.766;2.720;2023-05-10T00:19:16;4.20;;;1.40;;
75016;SDS011;63577;39.766;2.720;2023-05-10T00:21:41;3.90;;;1.20;;
75016;SDS011;63577;39.766;2.720;2023-05-10T00:24:07;3.70;;;1.40;;
75016;SDS011;63577;39.766;2.720;2023-05-10T00:26:32;4.20;;;1.20;;
75016;SDS011;63577;39.766;2.720;2023-05-10T00:28:57;4.40;;;1.20;;
75016;SDS011;63577;39.766;2.720;2023-05-10T00:31:23;6.20;;;1.20;;
75016;SDS011;63577;39.766;2.720;2023-05-10T00:33:49;3.60;;;1.20;;
75016;SDS011;63577;39.766;2.720;2023-05-10T00:36:14;3.50;;;1.30;;
75016;SDS011;63577;39.766;2.720;2023-05-10T00:38:39;3.70;;;1.00;;
75016;SDS011;63577;39.766;2.720;2023-05-10T00:41:05;3.90;;;1.10;;
75016;SDS011;63577;39.766;2.720;2023-05-10T00:43:31;3.90;;;1.00;;
75016;SDS011;63577;39.766;2.720;2023-05-10T00:45:56;3.80;;;1.00;;
75016;SDS011;63577;39.766;2.720;2023-05-10T00:48:22;3.10;;;0.80;;
75016;SDS011;63577;39.766;2.720;2023-05-10T00:50:48;4.60;;;1.40;;
75016;SDS011;63577;39.766;2.720;2023-05-10T00:53:13;4.30;;;1.30;;
75016;SDS011;63577;39.766;2.720;2023-05-10T00:55:39;5.60;;;1.00;;
75016;SDS011;63577;39.766;2.720;2023-05-10T00:58:04;5.00;;;0.90;;
75016;SDS011;63577;39.766;2.720;2023-05-10T01:00:30;3.40;;;0.90;;
75016;SDS011;63577;39.766;2.720;2023-05-10T01:02:55;4.30;;;0.80;;
75016;SDS011;63577;39.766;2.720;2023-05-10T01:05:21;4.80;;;1.20;;
75016;SDS011;63577;39.766;2.720;2023-05-10T01:07:46;3.70;;;0.90;;
75016;SDS011;63577;39.766;2.720;2023-05-10T01:10:12;4.00;;;0.80;;
75016;SDS011;63577;39.766;2.720;2023-05-10T01:12:38;4.30;;;0.80;;
75016;SDS011;63577;39.766;2.720;2023-05-10T01:15:05;3.70;;;0.80;;
75016;SDS011;63577;39.766;2.720;2023-05-10T01:17:31;2.90;;;0.60;;
75016;SDS011;63577;39.766;2.720;2023-05-10T01:19:57;3.30;;;0.60;;
75016;SDS011;63577;39.766;2.720;2023-05-10T01:38:04;2.80;;;0.80;;
75016;SDS011;63577;39.766;2.720;2023-05-10T01:42:59;2.80;;;0.70;;
75016;SDS011;63577;39.766;2.720;2023-05-10T01:45:47;1.20;;;0.40;;
75016;SDS011;63577;39.766;2.720;2023-05-10T01:48:13;0.90;;;0.50;;
75016;SDS011;63577;39.766;2.720;2023-05-10T01:50:41;2.00;;;0.50;;
75016;SDS011;63577;39.766;2.720;2023-05-10T01:53:08;1.70;;;0.50;;
75016;SDS011;63577;39.766;2.720;2023-05-10T01:55:36;2.10;;;0.50;;
75016;SDS011;63577;39.766;2.720;2023-05-10T01:58:09;2.00;;;0.60;;
75016;SDS011;63577;39.766;2.720;2023-05-10T02:00:35;1.80;;;0.60;;
75016;SDS011;63577;39.766;2.720;2023-05-10T02:03:04;2.40;;;0.50;;
75016;SDS011;63577;39.766;2.720;2023-05-10T02:05:30;1.80;;;0.40;;
75016;SDS011;63577;39.766;2.720;2023-05-10T02:07:57;1.40;;;0.50;;
75016;SDS011;63577;39.766;2.720;2023-05-10T02:10:23;2.00;;;0.60;;
75016;SDS011;63577;39.766;2.720;2023-05-10T02:12:48;1.30;;;0.50;;
75016;SDS011;63577;39.766;2.720;2023-05-10T02:15:17;1.50;;;0.40;;
75016;SDS011;63577;39.766;2.720;2023-05-10T02:17:44;1.70;;;0.50;;
75016;SDS011;63577;39.766;2.720;2023-05-10T02:20:11;2.80;;;0.40;;
75016;SDS011;63577;39.766;2.720;2023-05-10T02:22:37;4.10;;;0.60;;
75016;SDS011;63577;39.766;2.720;2023-05-10T02:25:04;2.70;;;0.60;;
75016;SDS011;63577;39.766;2.720;2023-05-10T02:27:30;1.00;;;0.40;;
75016;SDS011;63577;39.766;2.720;2023-05-10T02:29:55;1.10;;;0.40;;
75016;SDS011;63577;39.766;2.720;2023-05-10T02:32:22;2.30;;;0.70;;
75016;SDS011;63577;39.766;2.720;2023-05-10T02:34:48;2.00;;;0.40;;
75016;SDS011;63577;39.766;2.720;2023-05-10T02:37:18;1.20;;;0.40;;
75016;SDS011;63577;39.766;2.720;2023-05-10T02:39:43;0.80;;;0.40;;
75016;SDS011;63577;39.766;2.720;2023-05-10T02:42:15;1.30;;;0.40;;
75016;SDS011;63577;39.766;2.720;2023-05-10T02:44:42;1.30;;;0.40;;
75016;SDS011;63577;39.766;2.720;2023-05-10T02:47:08;1.40;;;0.30;;
75016;SDS011;63577;39.766;2.720;2023-05-10T02:49:33;1.10;;;0.40;;
75016;SDS011;63577;39.766;2.720;2023-05-10T02:52:00;2.20;;;0.60;;
75016;SDS011;63577;39.766;2.720;2023-05-10T02:54:29;1.20;;;0.50;;
75016;SDS011;63577;39.766;2.720;2023-05-10T02:56:56;2.10;;;0.40;;
75016;SDS011;63577;39.766;2.720;2023-05-10T02:59:22;2.10;;;0.40;;
75016;SDS011;63577;39.766;2.720;2023-05-10T03:01:47;1.50;;;0.50;;
75016;SDS011;63577;39.766;2.720;2023-05-10T03:04:12;1.30;;;0.40;;
75016;SDS011;63577;39.766;2.720;2023-05-10T03:06:38;1.20;;;0.30;;
75016;SDS011;63577;39.766;2.720;2023-05-10T03:09:03;3.60;;;0.60;;
75016;SDS011;63577;39.766;2.720;2023-05-10T03:11:37;1.30;;;0.50;;
75016;SDS011;63577;39.766;2.720;2023-05-10T03:16:50;1.20;;;0.30;;
75016;SDS011;63577;39.766;2.720;2023-05-10T03:19:19;1.60;;;0.50;;
75016;SDS011;63577;39.766;2.720;2023-05-10T03:21:49;2.40;;;0.50;;
75016;SDS011;63577;39.766;2.720;2023-05-10T03:24:16;1.80;;;0.50;;
75016;SDS011;63577;39.766;2.720;2023-05-10T03:26:43;2.10;;;0.50;;
75016;SDS011;63577;39.766;2.720;2023-05-10T03:29:08;2.80;;;0.60;;
75016;SDS011;63577;39.766;2.720;2023-05-10T03:31:34;2.00;;;0.60;;
75016;SDS011;63577;39.766;2.720;2023-05-10T03:34:00;3.10;;;0.70;;
75016;SDS011;63577;39.766;2.720;2023-05-10T03:36:26;3.00;;;0.70;;
75016;SDS011;63577;39.766;2.720;2023-05-10T03:38:51;1.40;;;0.40;;
75016;SDS011;63577;39.766;2.720;2023-05-10T03:41:17;1.40;;;0.30;;
75016;SDS011;63577;39.766;2.720;2023-05-10T03:43:42;1.20;;;0.50;;
75016;SDS011;63577;39.766;2.720;2023-05-10T03:46:07;2.40;;;0.50;;
75016;SDS011;63577;39.766;2.720;2023-05-10T03:48:33;1.60;;;0.50;;
75016;SDS011;63577;39.766;2.720;2023-05-10T03:50:58;2.70;;;0.70;;
75016;SDS011;63577;39.766;2.720;2023-05-10T03:53:24;2.50;;;0.50;;
75016;SDS011;63577;39.766;2.720;2023-05-10T03:55:49;2.30;;;0.50;;
75016;SDS011;63577;39.766;2.720;2023-05-10T03:58:14;1.40;;;0.50;;
75016;SDS011;63577;39.766;2.720;2023-05-10T04:00:40;2.00;;;0.50;;
75016;SDS011;63577;39.766;2.720;2023-05-10T04:03:12;1.00;;;0.40;;
75016;SDS011;63577;39.766;2.720;2023-05-10T04:05:37;2.00;;;0.60;;
75016;SDS011;63577;39.766;2.720;2023-05-10T04:08:03;2.40;;;0.60;;
75016;SDS011;63577;39.766;2.720;2023-05-10T04:10:29;1.50;;;0.40;;
75016;SDS011;63577;39.766;2.720;2023-05-10T04:12:54;1.80;;;0.40;;
75016;SDS011;63577;39.766;2.720;2023-05-10T04:15:19;1.30;;;0.40;;
75016;SDS011;63577;39.766;2.720;2023-05-10T04:17:45;1.90;;;0.60;;
75016;SDS011;63577;39.766;2.720;2023-05-10T04:20:11;2.40;;;0.60;;
75016;SDS011;63577;39.766;2.720;2023-05-10T04:22:36;2.00;;;0.60;;
75016;SDS011;63577;39.766;2.720;2023-05-10T04:25:01;2.10;;;0.70;;
75016;SDS011;63577;39.766;2.720;2023-05-10T04:27:27;2.20;;;0.40;;
75016;SDS011;63577;39.766;2.720;2023-05-10T04:29:52;1.20;;;0.40;;
75016;SDS011;63577;39.766;2.720;2023-05-10T04:32:17;3.40;;;0.60;;
75016;SDS011;63577;39.766;2.720;2023-05-10T04:34:44;2.30;;;0.50;;
75016;SDS011;63577;39.766;2.720;2023-05-10T04:37:09;2.10;;;0.60;;
75016;SDS011;63577;39.766;2.720;2023-05-10T04:39:34;2.80;;;0.50;;
75016;SDS011;63577;39.766;2.720;2023-05-10T04:42:01;1.80;;;0.60;;
75016;SDS011;63577;39.766;2.720;2023-05-10T04:44:28;3.10;;;0.80;;
75016;SDS011;63577;39.766;2.720;2023-05-10T04:46:53;3.10;;;0.60;;
75016;SDS011;63577;39.766;2.720;2023-05-10T04:49:18;2.10;;;0.70;;
75016;SDS011;63577;39.766;2.720;2023-05-10T04:51:44;2.30;;;0.60;;
75016;SDS011;63577;39.766;2.720;2023-05-10T04:54:09;2.00;;;0.40;;
75016;SDS011;63577;39.766;2.720;2023-05-10T04:56:35;1.60;;;0.50;;
75016;SDS011;63577;39.766;2.720;2023-05-10T04:59:00;5.50;;;0.90;;
75016;SDS011;63577;39.766;2.720;2023-05-10T05:01:26;2.10;;;0.70;;
75016;SDS011;63577;39.766;2.720;2023-05-10T05:03:51;2.40;;;0.60;;
75016;SDS011;63577;39.766;2.720;2023-05-10T05:06:18;1.60;;;0.50;;
75016;SDS011;63577;39.766;2.720;2023-05-10T05:08:43;3.40;;;0.80;;
75016;SDS011;63577;39.766;2.720;2023-05-10T05:11:08;2.30;;;0.60;;
75016;SDS011;63577;39.766;2.720;2023-05-10T05:13:34;2.10;;;0.60;;
75016;SDS011;63577;39.766;2.720;2023-05-10T05:16:00;2.30;;;0.60;;
75016;SDS011;63577;39.766;2.720;2023-05-10T05:18:26;2.90;;;0.80;;
75016;SDS011;63577;39.766;2.720;2023-05-10T05:20:51;1.60;;;0.50;;
75016;SDS011;63577;39.766;2.720;2023-05-10T05:23:16;2.20;;;0.60;;
75016;SDS011;63577;39.766;2.720;2023-05-10T05:25:43;1.70;;;0.50;;
75016;SDS011;63577;39.766;2.720;2023-05-10T05:28:08;1.90;;;0.50;;
75016;SDS011;63577;39.766;2.720;2023-05-10T05:30:33;3.40;;;0.70;;
75016;SDS011;63577;39.766;2.720;2023-05-10T05:32:59;3.10;;;0.70;;
75016;SDS011;63577;39.766;2.720;2023-05-10T05:35:24;2.20;;;0.60;;
75016;SDS011;63577;39.766;2.720;2023-05-10T05:37:49;2.40;;;0.60;;
75016;SDS011;63577;39.766;2.720;2023-05-10T05:40:15;2.20;;;0.60;;
75016;SDS011;63577;39.766;2.720;2023-05-10T05:42:40;1.90;;;0.50;;
75016;SDS011;63577;39.766;2.720;2023-05-10T05:45:06;2.40;;;0.60;;
75016;SDS011;63577;39.766;2.720;2023-05-10T05:47:33;2.80;;;0.60;;
75016;SDS011;63577;39.766;2.720;2023-05-10T05:49:59;2.20;;;0.60;;
75016;SDS011;63577;39.766;2.720;2023-05-10T05:52:24;2.40;;;0.70;;
75016;SDS011;63577;39.766;2.720;2023-05-10T05:54:50;2.80;;;0.60;;
75016;SDS011;63577;39.766;2.720;2023-05-10T05:57:15;3.50;;;0.80;;
75016;SDS011;63577;39.766;2.720;2023-05-10T05:59:40;1.60;;;0.50;;
75016;SDS011;63577;39.766;2.720;2023-05-10T06:02:09;4.30;;;1.00;;
75016;SDS011;63577;39.766;2.720;2023-05-10T06:04:34;2.40;;;0.70;;
75016;SDS011;63577;39.766;2.720;2023-05-10T06:06:59;3.40;;;0.70;;
75016;SDS011;63577;39.766;2.720;2023-05-10T06:09:25;2.50;;;0.60;;
75016;SDS011;63577;39.766;2.720;2023-05-10T06:11:50;2.60;;;0.60;;
75016;SDS011;63577;39.766;2.720;2023-05-10T06:14:15;2.30;;;0.50;;
75016;SDS011;63577;39.766;2.720;2023-05-10T06:16:41;3.60;;;1.00;;
75016;SDS011;63577;39.766;2.720;2023-05-10T06:19:06;3.20;;;0.60;;
75016;SDS011;63577;39.766;2.720;2023-05-10T06:21:31;2.00;;;0.50;;
75016;SDS011;63577;39.766;2.720;2023-05-10T06:23:57;2.30;;;0.60;;
75016;SDS011;63577;39.766;2.720;2023-05-10T06:26:22;2.60;;;0.70;;
75016;SDS011;63577;39.766;2.720;2023-05-10T06:28:47;1.70;;;0.50;;
75016;SDS011;63577;39.766;2.720;2023-05-10T06:31:13;3.00;;;0.60;;
75016;SDS011;63577;39.766;2.720;2023-05-10T06:33:38;4.70;;;1.00;;
75016;SDS011;63577;39.766;2.720;2023-05-10T06:36:04;15.60;;;3.90;;
75016;SDS011;63577;39.766;2.720;2023-05-10T06:38:29;5.60;;;1.50;;
75016;SDS011;63577;39.766;2.720;2023-05-10T06:40:55;2.50;;;0.70;;
75016;SDS011;63577;39.766;2.720;2023-05-10T06:43:20;3.00;;;0.80;;
75016;SDS011;63577;39.766;2.720;2023-05-10T06:45:46;3.20;;;0.70;;
75016;SDS011;63577;39.766;2.720;2023-05-10T06:48:12;2.20;;;0.70;;
75016;SDS011;63577;39.766;2.720;2023-05-10T06:50:37;2.70;;;0.60;;
75016;SDS011;63577;39.766;2.720;2023-05-10T06:53:03;2.70;;;0.70;;
75016;SDS011;63577;39.766;2.720;2023-05-10T06:55:28;2.10;;;0.60;;
75016;SDS011;63577;39.766;2.720;2023-05-10T06:57:54;2.80;;;0.80;;
75016;SDS011;63577;39.766;2.720;2023-05-10T07:00:20;4.50;;;1.10;;
75016;SDS011;63577;39.766;2.720;2023-05-10T07:02:45;3.90;;;1.20;;
75016;SDS011;63577;39.766;2.720;2023-05-10T07:05:11;3.00;;;0.80;;
75016;SDS011;63577;39.766;2.720;2023-05-10T07:07:37;2.30;;;0.80;;
75016;SDS011;63577;39.766;2.720;2023-05-10T07:10:02;2.80;;;0.80;;
75016;SDS011;63577;39.766;2.720;2023-05-10T07:12:28;3.40;;;0.90;;
75016;SDS011;63577;39.766;2.720;2023-05-10T07:14:53;3.00;;;0.80;;
75016;SDS011;63577;39.766;2.720;2023-05-10T07:17:19;2.70;;;0.70;;
75016;SDS011;63577;39.766;2.720;2023-05-10T07:19:44;4.00;;;0.90;;
75016;SDS011;63577;39.766;2.720;2023-05-10T07:22:10;2.90;;;0.90;;
75016;SDS011;63577;39.766;2.720;2023-05-10T07:24:35;2.10;;;0.70;;
75016;SDS011;63577;39.766;2.720;2023-05-10T07:27:01;2.40;;;0.80;;
75016;SDS011;63577;39.766;2.720;2023-05-10T07:29:26;2.60;;;0.70;;
75016;SDS011;63577;39.766;2.720;2023-05-10T07:31:52;3.90;;;1.00;;
75016;SDS011;63577;39.766;2.720;2023-05-10T07:34:17;2.00;;;0.60;;
75016;SDS011;63577;39.766;2.720;2023-05-10T07:36:43;3.70;;;0.70;;
75016;SDS011;63577;39.766;2.720;2023-05-10T07:39:08;4.30;;;0.90;;
75016;SDS011;63577;39.766;2.720;2023-05-10T07:41:33;4.90;;;1.20;;
75016;SDS011;63577;39.766;2.720;2023-05-10T07:43:59;7.40;;;1.30;;
75016;SDS011;63577;39.766;2.720;2023-05-10T07:46:24;7.90;;;1.30;;
75016;SDS011;63577;39.766;2.720;2023-05-10T07:48:50;10.00;;;1.60;;
75016;SDS011;63577;39.766;2.720;2023-05-10T07:51:15;9.70;;;1.60;;
75016;SDS011;63577;39.766;2.720;2023-05-10T07:53:40;9.90;;;1.40;;
75016;SDS011;63577;39.766;2.720;2023-05-10T07:58:46;11.20;;;1.90;;
75016;SDS011;63577;39.766;2.720;2023-05-10T08:01:12;9.10;;;1.60;;
75016;SDS011;63577;39.766;2.720;2023-05-10T08:03:37;11.00;;;1.50;;
75016;SDS011;63577;39.766;2.720;2023-05-10T08:06:03;6.90;;;1.60;;
75016;SDS011;63577;39.766;2.720;2023-05-10T08:08:28;10.00;;;1.50;;
75016;SDS011;63577;39.766;2.720;2023-05-10T08:10:53;9.20;;;1.60;;
75016;SDS011;63577;39.766;2.720;2023-05-10T08:13:19;7.40;;;1.70;;
75016;SDS011;63577;39.766;2.720;2023-05-10T08:15:44;6.80;;;1.30;;
75016;SDS011;63577;39.766;2.720;2023-05-10T08:18:09;7.30;;;1.70;;
75016;SDS011;63577;39.766;2.720;2023-05-10T08:20:34;8.60;;;1.40;;
75016;SDS011;63577;39.766;2.720;2023-05-10T08:23:00;7.70;;;1.30;;
75016;SDS011;63577;39.766;2.720;2023-05-10T08:25:25;11.50;;;1.70;;
75016;SDS011;63577;39.766;2.720;2023-05-10T08:27:51;9.60;;;1.60;;
75016;SDS011;63577;39.766;2.720;2023-05-10T08:30:16;8.20;;;1.50;;
75016;SDS011;63577;39.766;2.720;2023-05-10T08:32:42;9.30;;;1.50;;
75016;SDS011;63577;39.766;2.720;2023-05-10T08:35:07;11.10;;;1.60;;
75016;SDS011;63577;39.766;2.720;2023-05-10T08:37:33;12.50;;;1.80;;
75016;SDS011;63577;39.766;2.720;2023-05-10T08:39:58;6.90;;;1.60;;
75016;SDS011;63577;39.766;2.720;2023-05-10T08:42:23;8.00;;;1.50;;
75016;SDS011;63577;39.766;2.720;2023-05-10T08:44:50;7.90;;;1.40;;
75016;SDS011;63577;39.766;2.720;2023-05-10T08:47:17;8.80;;;1.60;;
75016;SDS011;63577;39.766;2.720;2023-05-10T08:49:43;9.80;;;1.90;;
75016;SDS011;63577;39.766;2.720;2023-05-10T08:52:11;7.90;;;1.60;;
75016;SDS011;63577;39.766;2.720;2023-05-10T08:54:38;8.40;;;1.60;;
75016;SDS011;63577;39.766;2.720;2023-05-10T08:57:04;11.10;;;1.80;;
75016;SDS011;63577;39.766;2.720;2023-05-10T08:59:29;9.00;;;1.50;;
75016;SDS011;63577;39.766;2.720;2023-05-10T09:01:58;10.70;;;1.60;;
75016;SDS011;63577;39.766;2.720;2023-05-10T09:04:24;8.60;;;1.70;;
75016;SDS011;63577;39.766;2.720;2023-05-10T09:06:50;10.30;;;1.50;;
75016;SDS011;63577;39.766;2.720;2023-05-10T09:09:16;8.50;;;1.70;;
75016;SDS011;63577;39.766;2.720;2023-05-10T09:11:42;11.10;;;1.70;;
75016;SDS011;63577;39.766;2.720;2023-05-10T09:14:07;9.20;;;1.90;;
75016;SDS011;63577;39.766;2.720;2023-05-10T09:16:34;10.30;;;1.60;;
75016;SDS011;63577;39.766;2.720;2023-05-10T09:18:59;10.20;;;1.40;;
75016;SDS011;63577;39.766;2.720;2023-05-10T09:21:25;13.30;;;1.90;;
75016;SDS011;63577;39.766;2.720;2023-05-10T09:23:50;8.20;;;1.70;;
75016;SDS011;63577;39.766;2.720;2023-05-10T09:26:22;10.20;;;1.60;;
75016;SDS011;63577;39.766;2.720;2023-05-10T09:31:16;12.60;;;1.90;;
75016;SDS011;63577;39.766;2.720;2023-05-10T09:33:44;9.60;;;1.80;;
75016;SDS011;63577;39.766;2.720;2023-05-10T09:36:11;9.90;;;2.20;;
75016;SDS011;63577;39.766;2.720;2023-05-10T09:38:49;9.50;;;1.70;;
75016;SDS011;63577;39.766;2.720;2023-05-10T09:41:16;9.30;;;1.70;;
75016;SDS011;63577;39.766;2.720;2023-05-10T09:43:42;12.10;;;2.20;;
75016;SDS011;63577;39.766;2.720;2023-05-10T09:46:11;9.30;;;1.60;;
75016;SDS011;63577;39.766;2.720;2023-05-10T09:48:44;13.20;;;2.40;;
75016;SDS011;63577;39.766;2.720;2023-05-10T09:51:10;8.90;;;1.70;;
75016;SDS011;63577;39.766;2.720;2023-05-10T09:53:35;10.90;;;1.80;;
75016;SDS011;63577;39.766;2.720;2023-05-10T09:56:01;10.90;;;1.80;;
75016;SDS011;63577;39.766;2.720;2023-05-10T09:58:26;9.70;;;1.90;;
75016;SDS011;63577;39.766;2.720;2023-05-10T10:00:51;10.70;;;2.20;;
75016;SDS011;63577;39.766;2.720;2023-05-10T10:03:18;9.20;;;2.10;;
75016;SDS011;63577;39.766;2.720;2023-05-10T10:05:44;8.50;;;1.50;;
75016;SDS011;63577;39.766;2.720;2023-05-10T10:08:10;10.60;;;1.50;;
75016;SDS011;63577;39.766;2.720;2023-05-10T10:10:36;11.80;;;2.60;;
75016;SDS011;63577;39.766;2.720;2023-05-10T10:13:02;12.60;;;3.50;;
75016;SDS011;63577;39.766;2.720;2023-05-10T10:15:27;11.20;;;2.20;;
75016;SDS011;63577;39.766;2.720;2023-05-10T10:17:53;8.00;;;1.70;;
75016;SDS011;63577;39.766;2.720;2023-05-10T10:20:19;8.60;;;1.50;;
75016;SDS011;63577;39.766;2.720;2023-05-10T10:22:45;11.40;;;1.70;;
75016;SDS011;63577;39.766;2.720;2023-05-10T10:25:11;9.90;;;1.60;;
75016;SDS011;63577;39.766;2.720;2023-05-10T10:27:45;7.80;;;1.70;;
75016;SDS011;63577;39.766;2.720;2023-05-10T10:32:42;10.40;;;1.70;;
75016;SDS011;63577;39.766;2.720;2023-05-10T10:35:13;9.90;;;1.50;;
75016;SDS011;63577;39.766;2.720;2023-05-10T10:37:45;11.30;;;2.10;;
75016;SDS011;63577;39.766;2.720;2023-05-10T10:40:24;7.60;;;1.30;;
75016;SDS011;63577;39.766;2.720;2023-05-10T10:42:50;8.70;;;1.50;;
75016;SDS011;63577;39.766;2.720;2023-05-10T10:45:16;8.90;;;1.50;;
75016;SDS011;63577;39.766;2.720;2023-05-10T10:47:41;10.20;;;1.50;;
75016;SDS011;63577;39.766;2.720;2023-05-10T10:50:08;8.60;;;1.60;;
75016;SDS011;63577;39.766;2.720;2023-05-10T10:52:39;12.00;;;1.80;;
75016;SDS011;63577;39.766;2.720;2023-05-10T10:55:05;9.50;;;1.60;;
75016;SDS011;63577;39.766;2.720;2023-05-10T10:57:32;8.90;;;1.60;;
75016;SDS011;63577;39.766;2.720;2023-05-10T11:02:43;11.80;;;1.60;;
75016;SDS011;63577;39.766;2.720;2023-05-10T11:07:55;7.80;;;1.60;;
75016;SDS011;63577;39.766;2.720;2023-05-10T11:10:22;8.60;;;1.40;;
75016;SDS011;63577;39.766;2.720;2023-05-10T11:12:51;9.90;;;1.60;;
75016;SDS011;63577;39.766;2.720;2023-05-10T11:15:16;6.50;;;1.50;;
75016;SDS011;63577;39.766;2.720;2023-05-10T11:17:42;7.20;;;1.60;;
75016;SDS011;63577;39.766;2.720;2023-05-10T11:20:08;7.50;;;1.40;;
75016;SDS011;63577;39.766;2.720;2023-05-10T11:22:49;7.30;;;1.60;;
75016;SDS011;63577;39.766;2.720;2023-05-10T11:25:16;6.90;;;1.40;;
75016;SDS011;63577;39.766;2.720;2023-05-10T11:27:41;11.20;;;1.70;;
75016;SDS011;63577;39.766;2.720;2023-05-10T11:30:07;6.00;;;1.50;;
75016;SDS011;63577;39.766;2.720;2023-05-10T11:32:36;5.30;;;1.30;;
75016;SDS011;63577;39.766;2.720;2023-05-10T11:35:06;9.40;;;1.40;;
75016;SDS011;63577;39.766;2.720;2023-05-10T11:39:59;7.80;;;1.60;;
75016;SDS011;63577;39.766;2.720;2023-05-10T11:42:25;6.90;;;1.40;;
75016;SDS011;63577;39.766;2.720;2023-05-10T11:44:50;7.40;;;1.30;;
75016;SDS011;63577;39.766;2.720;2023-05-10T11:47:16;6.00;;;1.40;;
75016;SDS011;63577;39.766;2.720;2023-05-10T11:49:44;9.20;;;1.30;;
75016;SDS011;63577;39.766;2.720;2023-05-10T11:52:10;8.30;;;1.20;;
75016;SDS011;63577;39.766;2.720;2023-05-10T11:54:45;5.70;;;1.30;;
75016;SDS011;63577;39.766;2.720;2023-05-10T11:57:11;5.80;;;1.10;;
75016;SDS011;63577;39.766;2.720;2023-05-10T11:59:36;5.70;;;0.90;;
75016;SDS011;63577;39.766;2.720;2023-05-10T12:02:02;5.90;;;1.10;;
75016;SDS011;63577;39.766;2.720;2023-05-10T12:04:28;4.80;;;1.10;;
75016;SDS011;63577;39.766;2.720;2023-05-10T12:06:54;4.40;;;1.10;;
75016;SDS011;63577;39.766;2.720;2023-05-10T12:09:20;6.10;;;1.10;;
75016;SDS011;63577;39.766;2.720;2023-05-10T12:11:45;5.70;;;1.20;;
75016;SDS011;63577;39.766;2.720;2023-05-10T12:14:11;4.70;;;0.90;;
75016;SDS011;63577;39.766;2.720;2023-05-10T12:16:36;5.50;;;1.40;;
75016;SDS011;63577;39.766;2.720;2023-05-10T12:19:01;5.70;;;1.00;;
75016;SDS011;63577;39.766;2.720;2023-05-10T12:21:27;4.10;;;1.10;;
75016;SDS011;63577;39.766;2.720;2023-05-10T12:23:54;5.10;;;1.30;;
75016;SDS011;63577;39.766;2.720;2023-05-10T12:26:25;4.70;;;1.10;;
75016;SDS011;63577;39.766;2.720;2023-05-10T12:28:54;5.10;;;1.00;;
75016;SDS011;63577;39.766;2.720;2023-05-10T12:31:19;5.70;;;1.10;;
75016;SDS011;63577;39.766;2.720;2023-05-10T12:33:45;4.90;;;1.40;;
75016;SDS011;63577;39.766;2.720;2023-05-10T12:36:15;5.70;;;1.00;;
75016;SDS011;63577;39.766;2.720;2023-05-10T12:38:41;4.90;;;1.20;;
75016;SDS011;63577;39.766;2.720;2023-05-10T12:41:09;4.80;;;1.00;;
75016;SDS011;63577;39.766;2.720;2023-05-10T12:43:34;4.70;;;1.30;;
75016;SDS011;63577;39.766;2.720;2023-05-10T12:48:32;5.60;;;1.10;;
75016;SDS011;63577;39.766;2.720;2023-05-10T12:50:59;5.80;;;1.20;;
75016;SDS011;63577;39.766;2.720;2023-05-10T12:53:24;5.90;;;1.10;;
75016;SDS011;63577;39.766;2.720;2023-05-10T12:55:50;5.50;;;1.10;;
75016;SDS011;63577;39.766;2.720;2023-05-10T12:58:15;5.60;;;1.10;;
75016;SDS011;63577;39.766;2.720;2023-05-10T13:00:40;6.50;;;1.20;;
75016;SDS011;63577;39.766;2.720;2023-05-10T13:03:06;4.50;;;1.20;;
75016;SDS011;63577;39.766;2.720;2023-05-10T13:05:34;6.30;;;1.30;;
75016;SDS011;63577;39.766;2.720;2023-05-10T13:07:59;5.00;;;1.10;;
75016;SDS011;63577;39.766;2.720;2023-05-10T13:10:25;5.80;;;1.30;;
75016;SDS011;63577;39.766;2.720;2023-05-10T13:12:50;5.50;;;1.10;;
75016;SDS011;63577;39.766;2.720;2023-05-10T13:15:16;5.30;;;1.30;;
75016;SDS011;63577;39.766;2.720;2023-05-10T13:17:41;5.60;;;1.10;;
75016;SDS011;63577;39.766;2.720;2023-05-10T13:20:08;5.50;;;1.10;;
75016;SDS011;63577;39.766;2.720;2023-05-10T13:22:34;4.90;;;0.90;;
75016;SDS011;63577;39.766;2.720;2023-05-10T13:25:00;5.00;;;1.10;;
75016;SDS011;63577;39.766;2.720;2023-05-10T13:27:25;6.50;;;1.20;;
75016;SDS011;63577;39.766;2.720;2023-05-10T13:29:50;5.60;;;0.90;;
75016;SDS011;63577;39.766;2.720;2023-05-10T13:32:16;5.30;;;1.10;;
75016;SDS011;63577;39.766;2.720;2023-05-10T13:34:41;6.50;;;1.30;;
75016;SDS011;63577;39.766;2.720;2023-05-10T13:37:06;8.20;;;1.40;;
75016;SDS011;63577;39.766;2.720;2023-05-10T13:39:32;6.00;;;1.30;;
75016;SDS011;63577;39.766;2.720;2023-05-10T13:41:59;5.80;;;0.80;;
75016;SDS011;63577;39.766;2.720;2023-05-10T13:44:24;5.30;;;1.30;;
75016;SDS011;63577;39.766;2.720;2023-05-10T13:46:50;5.90;;;1.20;;
75016;SDS011;63577;39.766;2.720;2023-05-10T13:49:16;4.50;;;1.10;;
75016;SDS011;63577;39.766;2.720;2023-05-10T13:51:42;5.30;;;1.30;;
75016;SDS011;63577;39.766;2.720;2023-05-10T13:54:08;4.60;;;1.10;;
75016;SDS011;63577;39.766;2.720;2023-05-10T13:56:33;5.00;;;1.10;;
75016;SDS011;63577;39.766;2.720;2023-05-10T13:58:59;4.60;;;1.00;;
75016;SDS011;63577;39.766;2.720;2023-05-10T14:01:25;4.20;;;1.20;;
75016;SDS011;63577;39.766;2.720;2023-05-10T14:03:50;3.70;;;0.80;;
75016;SDS011;63577;39.766;2.720;2023-05-10T14:06:15;5.00;;;0.90;;
75016;SDS011;63577;39.766;2.720;2023-05-10T14:08:41;4.30;;;0.90;;
75016;SDS011;63577;39.766;2.720;2023-05-10T14:11:06;6.60;;;0.80;;
75016;SDS011;63577;39.766;2.720;2023-05-10T14:13:32;7.70;;;1.30;;
75016;SDS011;63577;39.766;2.720;2023-05-10T14:15:57;5.50;;;1.00;;
75016;SDS011;63577;39.766;2.720;2023-05-10T14:18:25;5.90;;;1.00;;
75016;SDS011;63577;39.766;2.720;2023-05-10T14:20:51;8.50;;;1.30;;
75016;SDS011;63577;39.766;2.720;2023-05-10T14:23:16;8.10;;;1.00;;
75016;SDS011;63577;39.766;2.720;2023-05-10T14:25:41;5.90;;;1.20;;
75016;SDS011;63577;39.766;2.720;2023-05-10T14:28:07;4.40;;;1.10;;
75016;SDS011;63577;39.766;2.720;2023-05-10T14:30:33;4.10;;;1.00;;
75016;SDS011;63577;39.766;2.720;2023-05-10T14:32:59;6.70;;;0.90;;
75016;SDS011;63577;39.766;2.720;2023-05-10T14:35:26;5.30;;;1.00;;
75016;SDS011;63577;39.766;2.720;2023-05-10T14:37:52;4.20;;;0.90;;
75016;SDS011;63577;39.766;2.720;2023-05-10T14:40:17;5.80;;;1.00;;
75016;SDS011;63577;39.766;2.720;2023-05-10T14:42:43;4.80;;;1.00;;
75016;SDS011;63577;39.766;2.720;2023-05-10T14:45:09;7.20;;;1.10;;
75016;SDS011;63577;39.766;2.720;2023-05-10T14:47:34;5.80;;;0.90;;
75016;SDS011;63577;39.766;2.720;2023-05-10T14:50:00;4.30;;;0.90;;
75016;SDS011;63577;39.766;2.720;2023-05-10T14:52:25;5.00;;;1.10;;
75016;SDS011;63577;39.766;2.720;2023-05-10T14:54:51;5.40;;;1.00;;
75016;SDS011;63577;39.766;2.720;2023-05-10T14:57:16;6.00;;;1.00;;
75016;SDS011;63577;39.766;2.720;2023-05-10T14:59:42;5.20;;;1.10;;
75016;SDS011;63577;39.766;2.720;2023-05-10T15:02:07;6.00;;;1.10;;
75016;SDS011;63577;39.766;2.720;2023-05-10T15:04:33;5.50;;;1.00;;
75016;SDS011;63577;39.766;2.720;2023-05-10T15:06:58;4.80;;;0.90;;
75016;SDS011;63577;39.766;2.720;2023-05-10T15:09:24;4.20;;;1.00;;
75016;SDS011;63577;39.766;2.720;2023-05-10T15:11:50;5.40;;;0.90;;
75016;SDS011;63577;39.766;2.720;2023-05-10T15:14:15;4.70;;;1.20;;
75016;SDS011;63577;39.766;2.720;2023-05-10T15:16:40;7.00;;;1.20;;
75016;SDS011;63577;39.766;2.720;2023-05-10T15:19:06;5.50;;;0.90;;